Time;durP1;ratioP1;P1;durP2;ratioP2;P2;SDS_P1;SDS_P2;PMS_P1;PMS_P2;Temp;Humidity;BMP_temperature;BMP_pressure;BME280_temperature;BME280_humidity;BME280_pressure;Samples;Min_cycle;Max_cycle;Signal;HPM_P1;HPM_P2
2022/02/08 00:00:29;;;;;;;;;;;;;;;9.61;67.23;99778.59;5008988;27;102837;-49
2022/02/08 00:02:57;;;;;;;;;;;;;;;9.61;67.33;99767.72;5002935;28;102566;-49
2022/02/08 00:05:25;;;;;;;;;;;;;;;9.61;67.66;99773.97;4995204;28;102552;-49
2022/02/08 00:07:54;;;;;;;;;;;;;;;9.59;67.60;99764.47;5008924;28;103842;-49
2022/02/08 00:10:21;;;;;;;;;;;;;;;9.61;67.51;99778.59;5000754;28;102655;-48
2022/02/08 00:12:47;;;;;;;;;;;;;;;9.60;67.51;99777.00;5006248;27;102554;-49
2022/02/08 00:15:13;;;;;;;;;;;;;;;9.60;67.82;99782.44;5008104;28;102563;-50
2022/02/08 00:17:39;;;;;;;;;;;;;;;9.59;67.69;99787.06;5001774;28;103936;-49
2022/02/08 00:20:08;;;;;;;;;;;;;;;9.60;67.52;99790.56;5013187;27;102235;-48
2022/02/08 00:22:37;;;;;;;;;;;;;;;9.60;67.63;99788.66;5009010;28;102298;-49
2022/02/08 00:25:04;;;;;;;;;;;;;;;9.60;67.93;99790.56;5006479;27;102634;-49
2022/02/08 00:27:30;;;;;;;;;;;;;;;9.60;67.85;99787.84;5007675;28;103679;-48
2022/02/08 00:29:57;;;;;;;;;;;;;;;9.60;67.30;99793.28;5006805;28;102738;-49
2022/02/08 00:32:23;;;;;;;;;;;;;;;9.60;67.81;99793.28;5010914;28;102376;-48
2022/02/08 00:34:49;;;;;;;;;;;;;;;9.60;68.19;99804.16;5008990;27;102348;-49
2022/02/08 00:37:16;;;;;;;;;;;;;;;9.60;67.63;99804.16;5006794;28;103820;-48
2022/02/08 00:39:43;;;;;;;;;;;;;;;9.59;67.68;99797.06;5006036;28;102394;-49
2022/02/08 00:42:11;;;;;;;;;;;;;;;9.59;67.70;99802.50;5007135;28;102616;-49
2022/02/08 00:44:43;;;;;;;;;;;;;;;9.59;67.55;99791.66;5006497;28;102497;-49
2022/02/08 00:47:21;;;;;;;;;;;;;;;9.59;67.98;99797.06;5008323;28;103906;-50
2022/02/08 00:49:47;;;;;;;;;;;;;;;9.58;67.47;99785.41;5008539;27;102614;-49
2022/02/08 00:52:16;;;;;;;;;;;;;;;9.59;67.40;99795.19;5006035;28;106050;-49
2022/02/08 00:54:44;;;;;;;;;;;;;;;9.58;67.27;99807.13;5006877;28;102843;-49
2022/02/08 00:57:10;;;;;;;;;;;;;;;9.58;67.70;99806.34;5008150;28;103659;-49
2022/02/08 00:59:37;;;;;;;;;;;;;;;9.58;67.70;99811.75;5008496;28;102699;-49
2022/02/08 01:02:04;;;;;;;;;;;;;;;9.59;67.29;99807.94;5007239;27;102574;-49
2022/02/08 01:04:30;;;;;;;;;;;;;;;9.58;67.38;99817.19;5018165;27;102661;-49
2022/02/08 01:06:57;;;;;;;;;;;;;;;9.59;67.97;99813.38;5005359;28;104129;-49
2022/02/08 01:09:40;;;;;;;;;;;;;;;9.58;67.98;99814.47;5007801;27;102461;-50
2022/02/08 01:12:08;;;;;;;;;;;;;;;9.58;67.57;99817.19;5006332;28;102422;-49
2022/02/08 01:14:41;;;;;;;;;;;;;;;9.58;67.28;99819.91;5001623;28;102566;-49
2022/02/08 01:17:07;;;;;;;;;;;;;;;9.58;67.55;99811.75;5004959;28;103934;-49
2022/02/08 01:19:35;;;;;;;;;;;;;;;9.58;67.26;99811.75;5014167;28;102505;-49
2022/02/08 01:22:02;;;;;;;;;;;;;;;9.57;67.75;99821.81;5000766;27;102148;-48
2022/02/08 01:24:28;;;;;;;;;;;;;;;9.57;67.43;99826.44;5005803;27;102697;-49
2022/02/08 01:27:07;;;;;;;;;;;;;;;9.57;67.70;99827.25;5001320;28;104032;-49
2022/02/08 01:29:51;;;;;;;;;;;;;;;9.57;67.64;99831.88;4997854;27;102421;-49
2022/02/08 01:34:55;;;;;;;;;;;;;;;9.57;67.42;99829.16;5013255;28;102789;-48
2022/02/08 01:42:51;;;;;;;;;;;;;;;9.56;67.29;99836.50;5004163;28;102495;-49
2022/02/08 01:48:01;;;;;;;;;;;;;;;9.56;67.78;99830.28;5010091;28;103798;-48
2022/02/08 01:50:28;;;;;;;;;;;;;;;9.56;67.60;99833.00;5007223;27;102355;-48
2022/02/08 01:52:54;;;;;;;;;;;;;;;9.56;67.61;99835.72;5006603;28;102513;-49
2022/02/08 01:55:20;;;;;;;;;;;;;;;9.55;67.61;99834.06;5009311;27;102563;-49
2022/02/08 01:57:47;;;;;;;;;;;;;;;9.55;67.62;99825.91;5005602;28;104116;-49
2022/02/08 02:00:14;;;;;;;;;;;;;;;9.56;68.05;99833.00;5019126;28;102254;-49
2022/02/08 02:02:41;;;;;;;;;;;;;;;9.56;67.25;99825.66;5008826;28;102345;-49
2022/02/08 02:05:08;;;;;;;;;;;;;;;9.55;67.63;99837.59;5009368;28;102470;-49
2022/02/08 02:07:35;;;;;;;;;;;;;;;9.55;67.51;99840.31;5007081;28;104555;-49
2022/02/08 02:10:03;;;;;;;;;;;;;;;9.54;67.96;99844.13;5008606;28;102409;-48
2022/02/08 02:12:29;;;;;;;;;;;;;;;9.55;68.08;99847.66;5005721;27;102853;-47
2022/02/08 02:14:58;;;;;;;;;;;;;;;9.55;68.01;99853.88;5008456;28;102702;-49
2022/02/08 02:17:25;;;;;;;;;;;;;;;9.55;67.76;99851.16;5007109;28;104193;-49
2022/02/08 02:19:52;;;;;;;;;;;;;;;9.55;67.83;99850.38;5014229;27;102520;-49
2022/02/08 02:22:18;;;;;;;;;;;;;;;9.54;67.67;99854.19;5008116;28;102794;-49
2022/02/08 02:24:45;;;;;;;;;;;;;;;9.55;67.31;99856.59;5007635;28;102529;-48
2022/02/08 02:27:11;;;;;;;;;;;;;;;9.55;67.76;99844.94;4996981;28;102968;-49
2022/02/08 02:29:38;;;;;;;;;;;;;;;9.55;67.87;99853.09;5006371;28;102589;-48
2022/02/08 02:32:05;;;;;;;;;;;;;;;9.54;67.47;99840.59;5007098;28;102992;-49
2022/02/08 02:34:31;;;;;;;;;;;;;;;9.53;67.98;99828.94;5008130;28;102751;-48
2022/02/08 02:36:59;;;;;;;;;;;;;;;9.54;67.64;99827.81;5009390;28;108122;-49
2022/02/08 02:39:25;;;;;;;;;;;;;;;9.53;67.27;99842.50;5009070;27;102472;-49
2022/02/08 02:41:53;;;;;;;;;;;;;;;9.54;68.04;99837.88;5006721;27;102570;-48
2022/02/08 02:44:23;;;;;;;;;;;;;;;9.54;68.13;99830.53;5009148;27;102637;-49
2022/02/08 02:46:49;;;;;;;;;;;;;;;9.53;68.09;99828.94;5010270;27;103799;-49
2022/02/08 02:49:15;;;;;;;;;;;;;;;9.55;67.85;99844.94;5010574;28;102915;-49
2022/02/08 02:51:42;;;;;;;;;;;;;;;9.54;67.70;99851.47;5010564;27;102797;-49
2022/02/08 02:54:12;;;;;;;;;;;;;;;9.53;67.98;99849.84;5010060;27;102349;-49
2022/02/08 02:56:38;;;;;;;;;;;;;;;9.53;67.97;99849.84;5010633;27;104094;-49
2022/02/08 02:59:06;;;;;;;;;;;;;;;9.53;67.35;99855.28;5009679;28;102891;-48
2022/02/08 03:20:22;;;;;;;;;;;;;;;9.52;68.20;99916.13;5003615;28;102430;-48
2022/02/08 03:22:48;;;;;;;;;;;;;;;9.54;67.96;99927.53;5010426;28;102144;-49
2022/02/08 03:25:14;;;;;;;;;;;;;;;9.53;67.89;99917.75;5008405;28;102337;-49
2022/02/08 03:27:40;;;;;;;;;;;;;;;9.52;68.09;99925.09;5002596;28;103867;-49
2022/02/08 03:30:07;;;;;;;;;;;;;;;9.52;68.10;99921.56;5009019;28;102195;-49
2022/02/08 03:32:35;;;;;;;;;;;;;;;9.53;67.87;99921.28;5008206;27;102687;-49
2022/02/08 03:35:01;;;;;;;;;;;;;;;9.53;67.42;99924.00;5008493;28;102693;-48
2022/02/08 03:37:31;;;;;;;;;;;;;;;9.52;67.60;99924.25;5006128;27;103447;-49
2022/02/08 03:40:04;;;;;;;;;;;;;;;9.53;68.16;99931.34;5006383;27;102771;-49
2022/02/08 03:42:37;;;;;;;;;;;;;;;9.52;68.10;99926.97;5009318;28;102934;-49
2022/02/08 03:45:06;;;;;;;;;;;;;;;9.53;67.92;99928.63;5008766;28;102650;-49
2022/02/08 03:47:32;;;;;;;;;;;;;;;9.52;67.33;99926.97;5008144;27;103844;-49
2022/02/08 03:50:01;;;;;;;;;;;;;;;9.52;68.05;99937.84;5010784;27;102409;-49
2022/02/08 03:52:27;;;;;;;;;;;;;;;9.52;67.30;99946.00;5016699;27;102946;-49
2022/02/08 03:54:53;;;;;;;;;;;;;;;9.52;67.65;99946.00;5009701;27;102358;-49
2022/02/08 03:57:23;;;;;;;;;;;;;;;9.52;67.85;99954.16;5008879;28;103861;-49
2022/02/08 03:59:49;;;;;;;;;;;;;;;9.51;67.57;99949.81;5000589;28;102715;-49
2022/02/08 04:02:33;;;;;;;;;;;;;;;9.51;67.98;99957.97;5003250;28;102369;-48
2022/02/08 04:05:10;;;;;;;;;;;;;;;9.52;68.05;99962.28;5001291;28;102775;-49
2022/02/08 04:10:06;;;;;;;;;;;;;;;9.51;68.10;99982.41;5016393;28;102324;-49
2022/02/08 04:12:43;;;;;;;;;;;;;;;9.52;67.90;100003.03;4999264;27;102672;-48
2022/02/08 04:15:32;;;;;;;;;;;;;;;9.52;68.13;100008.47;5015354;27;102556;-48
2022/02/08 04:32:06;;;;;;;;;;;;;;;9.50;68.01;100051.41;5007266;28;102239;-48
2022/02/08 04:34:44;;;;;;;;;;;;;;;9.51;68.08;100055.75;5002446;28;102459;-49
2022/02/08 04:45:37;;;;;;;;;;;;;;;9.50;68.17;100070.44;5000448;28;102163;-49
2022/02/08 04:50:31;;;;;;;;;;;;;;;9.51;68.07;100085.63;5005093;28;104052;-50
2022/02/08 04:53:05;;;;;;;;;;;;;;;9.51;67.28;100088.34;5004656;28;102352;-48
2022/02/08 04:55:59;;;;;;;;;;;;;;;9.51;67.80;100104.63;5007397;27;102483;-49
2022/02/08 05:36:38;;;;;;;;;;;;;;;9.49;67.30;100193.75;5006952;28;102006;-49
2022/02/08 05:46:58;;;;;;;;;;;;;;;9.48;67.80;100211.13;4962674;28;102297;-49
2022/02/08 05:49:27;;;;;;;;;;;;;;;9.48;67.85;100213.84;5005832;28;102692;-48
2022/02/08 05:54:20;;;;;;;;;;;;;;;9.46;67.69;100221.47;5005845;27;103743;-49
2022/02/08 05:56:52;;;;;;;;;;;;;;;9.47;67.74;100223.09;5005507;27;102602;-48
2022/02/08 05:59:18;;;;;;;;;;;;;;;9.46;67.56;100232.34;5002837;28;102859;-48
2022/02/08 06:01:44;;;;;;;;;;;;;;;9.45;67.76;100247.81;5000435;27;102823;-49
2022/02/08 06:04:12;;;;;;;;;;;;;;;9.46;67.46;100243.19;5004921;28;103908;-48
2022/02/08 06:06:38;;;;;;;;;;;;;;;9.45;67.32;100250.53;4999703;27;102323;-48
2022/02/08 06:09:04;;;;;;;;;;;;;;;9.45;67.23;100264.13;5006176;28;102545;-49
2022/02/08 06:11:35;;;;;;;;;;;;;;;9.45;67.55;100255.97;5011882;27;102787;-49
2022/02/08 06:14:03;;;;;;;;;;;;;;;9.44;67.98;100262.47;4999721;28;103908;-49
2022/02/08 06:16:31;;;;;;;;;;;;;;;9.45;67.81;100271.41;5021173;27;102730;-54
2022/02/08 06:18:57;;;;;;;;;;;;;;;9.44;68.04;100267.91;5017293;27;102448;-49
2022/02/08 06:21:23;;;;;;;;;;;;;;;9.45;68.01;100274.13;5008893;27;102644;-49
2022/02/08 06:23:50;;;;;;;;;;;;;;;9.45;67.98;100279.56;5012801;28;102986;-49
2022/02/08 06:26:18;;;;;;;;;;;;;;;9.44;67.17;100276.03;5012582;27;105521;-49
2022/02/08 06:28:48;;;;;;;;;;;;;;;9.44;67.40;100272.53;5012611;27;102361;-49
2022/02/08 06:31:17;;;;;;;;;;;;;;;9.44;67.49;100280.66;5007573;28;102406;-49
2022/02/08 06:33:43;;;;;;;;;;;;;;;9.44;67.87;100284.19;5000661;28;104055;-48
2022/02/08 06:36:09;;;;;;;;;;;;;;;9.45;67.64;100295.88;5012774;27;102606;-49
2022/02/08 06:38:35;;;;;;;;;;;;;;;9.45;67.97;100295.88;5013569;28;102725;-49
2022/02/08 06:41:02;;;;;;;;;;;;;;;9.44;67.34;100292.34;5015069;27;102778;-49
2022/02/08 06:43:30;;;;;;;;;;;;;;;9.45;67.13;100301.31;5010012;27;103846;-48
2022/02/08 06:45:56;;;;;;;;;;;;;;;9.45;67.98;100301.31;5012211;27;102486;-48
2022/02/08 06:48:24;;;;;;;;;;;;;;;9.44;67.79;100305.13;5012419;27;102459;-49
2022/02/08 06:50:52;;;;;;;;;;;;;;;9.44;67.68;100310.53;5014169;27;103609;-48
2022/02/08 06:53:18;;;;;;;;;;;;;;;9.44;67.48;100299.69;5010037;27;103689;-48
2022/02/08 06:55:45;;;;;;;;;;;;;;;9.45;67.63;100312.16;5009602;27;102402;-48
2022/02/08 06:58:12;;;;;;;;;;;;;;;9.45;67.54;100323.03;5012318;27;102376;-49
2022/02/08 07:00:41;;;;;;;;;;;;;;;9.44;67.57;100327.66;5010550;27;102498;-50
2022/02/08 07:03:08;;;;;;;;;;;;;;;9.45;67.04;100333.91;5007434;27;103813;-48
2022/02/08 07:05:36;;;;;;;;;;;;;;;9.44;67.42;100335.00;5001449;27;102653;-49
2022/02/08 07:08:10;;;;;;;;;;;;;;;9.43;67.70;100342.34;5010037;27;102092;-48
2022/02/08 07:10:36;;;;;;;;;;;;;;;9.44;67.61;100343.13;5008168;28;102382;-49
2022/02/08 07:13:04;;;;;;;;;;;;;;;9.45;67.59;100342.03;5007135;27;104313;-49
2022/02/08 07:15:30;;;;;;;;;;;;;;;9.43;67.82;100339.63;5008160;27;102626;-49
2022/02/08 07:17:59;;;;;;;;;;;;;;;9.44;67.64;100348.56;5012011;27;102127;-49
2022/02/08 07:20:25;;;;;;;;;;;;;;;9.44;67.89;100354.00;5009956;27;102887;-49
2022/02/08 07:22:53;;;;;;;;;;;;;;;9.44;67.85;100354.81;5007921;27;103876;-49
2022/02/08 07:25:19;;;;;;;;;;;;;;;9.44;67.74;100348.56;5010094;27;104173;-49
2022/02/08 07:27:45;;;;;;;;;;;;;;;9.44;67.90;100348.56;5012643;27;102423;-49
2022/02/08 07:30:13;;;;;;;;;;;;;;;9.43;67.48;100363.25;5011387;27;102029;-49
2022/02/08 07:32:39;;;;;;;;;;;;;;;9.43;67.06;100363.25;5003838;28;104070;-49
2022/02/08 07:35:29;;;;;;;;;;;;;;;9.43;67.89;100364.06;5007190;28;102864;-48
2022/02/08 07:42:58;;;;;;;;;;;;;;;9.43;67.06;100374.09;5008252;28;103749;-49
2022/02/08 07:45:24;;;;;;;;;;;;;;;9.42;67.61;100377.94;5009366;28;102167;-48
2022/02/08 07:47:52;;;;;;;;;;;;;;;9.42;67.81;100391.50;5009287;28;102330;-49
2022/02/08 07:50:19;;;;;;;;;;;;;;;9.42;67.04;100391.50;4997037;28;102599;-48
2022/02/08 07:52:45;;;;;;;;;;;;;;;9.41;67.08;100392.56;5004291;28;104011;-49
2022/02/08 07:55:12;;;;;;;;;;;;;;;9.42;67.22;100410.50;5006045;27;103708;-49
2022/02/08 07:57:39;;;;;;;;;;;;;;;9.42;67.74;100405.09;4998411;28;102808;-49
2022/02/08 08:00:05;;;;;;;;;;;;;;;9.42;67.53;100399.66;5000941;27;103021;-48
2022/02/08 08:02:34;;;;;;;;;;;;;;;9.42;67.44;100421.38;5007125;28;103837;-49
2022/02/08 08:05:00;;;;;;;;;;;;;;;9.43;67.55;100428.44;5010096;27;102172;-49
2022/02/08 08:07:26;;;;;;;;;;;;;;;9.40;67.81;100427.06;5005465;28;102577;-49
2022/02/08 08:09:52;;;;;;;;;;;;;;;9.42;67.81;100443.09;5010533;28;102506;-49
2022/02/08 08:12:21;;;;;;;;;;;;;;;9.40;67.37;100435.22;5003157;28;103314;-49
2022/02/08 08:14:48;;;;;;;;;;;;;;;9.41;67.85;100436.84;4997711;27;102383;-49
2022/02/08 08:19:55;;;;;;;;;;;;;;;9.40;67.25;100446.06;5009026;28;102637;-49
2022/02/08 08:22:21;;;;;;;;;;;;;;;9.41;66.99;100446.88;5007201;28;104182;-48
2022/02/08 08:24:48;;;;;;;;;;;;;;;9.41;67.48;100453.13;5002551;28;102446;-49
2022/02/08 08:27:15;;;;;;;;;;;;;;;9.39;67.45;100449.88;5005375;27;102776;-49
2022/02/08 08:29:42;;;;;;;;;;;;;;;9.41;67.33;100457.75;5004417;27;102511;-49
2022/02/08 08:32:12;;;;;;;;;;;;;;;9.39;67.30;100472.44;5003609;28;103977;-49
2022/02/08 08:34:38;;;;;;;;;;;;;;;9.39;66.89;100477.84;5007689;27;102420;-49
2022/02/08 08:37:05;;;;;;;;;;;;;;;9.39;67.37;100486.00;5005385;27;102364;-49
2022/02/08 08:39:41;;;;;;;;;;;;;;;9.39;67.48;100482.47;5005211;27;102580;-49
2022/02/08 08:42:26;;;;;;;;;;;;;;;9.38;67.36;100481.66;4997565;28;103986;-49
2022/02/08 08:53:15;;;;;;;;;;;;;;;9.37;67.01;100488.16;4992919;28;103847;-48
2022/02/08 08:55:41;;;;;;;;;;;;;;;9.37;67.56;100490.88;5003944;28;102218;-49
2022/02/08 08:58:07;;;;;;;;;;;;;;;9.37;67.77;100501.75;4998625;28;102787;-49
2022/02/08 09:00:35;;;;;;;;;;;;;;;9.37;66.89;100498.22;4994437;27;102739;-50
2022/02/08 09:03:01;;;;;;;;;;;;;;;9.36;67.15;100516.41;4996376;28;103820;-49
2022/02/08 09:05:27;;;;;;;;;;;;;;;9.37;67.17;100509.88;5007715;27;102255;-49
2022/02/08 09:07:53;;;;;;;;;;;;;;;9.36;67.80;100519.13;5006579;28;102177;-49
2022/02/08 09:10:24;;;;;;;;;;;;;;;9.36;67.60;100526.47;5010244;27;102452;-49
2022/02/08 09:13:01;;;;;;;;;;;;;;;9.35;67.44;100524.84;5003906;27;103584;-48
2022/02/08 09:15:47;;;;;;;;;;;;;;;9.34;67.66;100534.91;5009187;28;102322;-49
2022/02/08 09:28:55;;;;;;;;;;;;;;;9.35;67.42;100562.88;4982857;28;102811;-49
2022/02/08 09:31:21;;;;;;;;;;;;;;;9.35;67.08;100573.72;5006749;28;102386;-49
2022/02/08 09:33:48;;;;;;;;;;;;;;;9.35;67.24;100581.88;5002827;28;103883;-49
2022/02/08 09:36:14;;;;;;;;;;;;;;;9.35;66.96;100579.97;4999165;27;102182;-49
2022/02/08 09:38:41;;;;;;;;;;;;;;;9.35;67.47;100590.84;5000247;28;102724;-49
2022/02/08 09:41:09;;;;;;;;;;;;;;;9.35;67.63;100593.56;5005606;28;102838;-49
2022/02/08 09:43:36;;;;;;;;;;;;;;;9.35;67.07;100600.88;4998863;28;103829;-48
2022/02/08 09:46:05;;;;;;;;;;;;;;;9.35;67.41;100604.41;5004662;28;102345;-49
2022/02/08 09:51:00;;;;;;;;;;;;;;;9.34;67.19;100600.06;5001037;28;102877;-49
2022/02/08 09:53:34;;;;;;;;;;;;;;;9.34;67.34;100602.78;4995991;27;103863;-49
2022/02/08 09:56:01;;;;;;;;;;;;;;;9.36;67.41;100616.91;5002958;27;102358;-48
2022/02/08 09:58:27;;;;;;;;;;;;;;;9.35;67.69;100604.41;5007069;28;102499;-48
2022/02/08 10:01:02;;;;;;;;;;;;;;;9.35;67.34;100617.19;5006956;27;103819;-48
2022/02/08 10:03:28;;;;;;;;;;;;;;;9.34;66.99;100616.38;5013840;27;103873;-48
2022/02/08 10:05:56;;;;;;;;;;;;;;;9.35;67.56;100601.69;4996902;28;102772;-49
2022/02/08 10:08:23;;;;;;;;;;;;;;;9.34;67.68;100604.66;5000837;27;102601;-49
2022/02/08 10:10:50;;;;;;;;;;;;;;;9.34;67.48;100594.66;5004001;27;104385;-50
2022/02/08 10:13:30;;;;;;;;;;;;;;;9.34;67.27;100619.09;4994802;28;104215;-49
2022/02/08 10:21:45;;;;;;;;;;;;;;;9.33;67.61;100630.19;5003095;28;102400;-49
2022/02/08 10:24:14;;;;;;;;;;;;;;;9.34;66.96;100638.09;5002057;28;103689;-49
2022/02/08 10:26:54;;;;;;;;;;;;;;;9.33;67.63;100643.78;4998395;28;102536;-49
2022/02/08 10:40:09;;;;;;;;;;;;;;;9.33;66.72;100665.50;5004778;28;102517;-49
2022/02/08 10:42:37;;;;;;;;;;;;;;;9.31;67.49;100668.50;5006797;28;102420;-49
2022/02/08 10:45:04;;;;;;;;;;;;;;;9.32;67.43;100675.56;5005208;27;103460;-50
2022/02/08 10:47:34;;;;;;;;;;;;;;;9.31;67.16;100687.50;5005768;28;102597;-49
2022/02/08 10:50:01;;;;;;;;;;;;;;;9.32;67.39;100682.88;5000132;28;102535;-48
2022/02/08 10:52:28;;;;;;;;;;;;;;;9.32;67.28;100700.00;5004091;27;102770;-49
2022/02/08 10:54:56;;;;;;;;;;;;;;;9.33;67.34;100700.81;5005127;27;103776;-49
2022/02/08 10:57:37;;;;;;;;;;;;;;;9.33;66.98;100704.34;5004323;28;102459;-49
2022/02/08 11:00:05;;;;;;;;;;;;;;;9.32;67.38;100700.00;4999954;27;102564;-48
2022/02/08 11:02:39;;;;;;;;;;;;;;;9.32;66.96;100710.84;5009102;27;102623;-49
2022/02/08 11:05:17;;;;;;;;;;;;;;;9.32;67.27;100710.84;5006878;28;103854;-49
2022/02/08 11:14:09;;;;;;;;;;;;;;;9.33;67.26;100723.34;5006026;27;102939;-49
2022/02/08 11:16:10;;;;;;;;;;;;;;;9.32;67.58;100721.72;4992132;27;103945;-48
2022/02/08 11:18:44;;;;;;;;;;;;;;;9.33;67.20;100725.25;5007317;27;102251;-49
2022/02/08 11:21:59;;;;;;;;;;;;;;;9.33;67.06;100734.22;5004319;28;102291;-48
2022/02/08 11:24:05;;;;;;;;;;;;;;;9.32;67.29;100735.31;5001187;28;102782;-49
2022/02/08 11:26:36;;;;;;;;;;;;;;;9.33;66.72;100727.97;5013605;27;103948;-49
2022/02/08 11:29:12;;;;;;;;;;;;;;;9.32;67.07;100732.59;5008966;27;102666;-49
2022/02/08 11:31:46;;;;;;;;;;;;;;;9.33;67.38;100744.25;5006116;27;103946;-49
2022/02/08 11:44:53;;;;;;;;;;;;;;;9.32;67.13;100748.06;5005785;27;102818;-49
2022/02/08 11:52:35;;;;;;;;;;;;;;;9.31;67.47;100758.13;5001340;28;102667;-50
2022/02/08 12:07:24;;;;;;;;;;;;;;;9.32;66.63;100769.78;5002717;27;103824;-49
2022/02/08 12:31:40;;;;;;;;;;;;;;;9.30;67.43;100799.91;5014451;27;102472;-49
2022/02/08 12:56:05;;;;;;;;;;;;;;;9.30;66.89;100843.38;5004390;27;102667;-48
2022/02/08 12:58:53;;;;;;;;;;;;;;;9.29;67.04;100847.16;5007987;28;102254;-49
2022/02/08 13:01:44;;;;;;;;;;;;;;;9.30;66.92;100867.81;4999345;28;103948;-48
2022/02/08 14:01:45;;;;;;;;;;;;;;;9.26;66.54;100950.88;5005250;28;102691;-48
2022/02/08 14:09:35;;;;;;;;;;;;;;;9.26;66.55;100960.94;5003868;28;102625;-48
2022/02/08 14:19:40;;;;;;;;;;;;;;;9.25;66.81;100981.84;5001172;28;102743;-48
2022/02/08 14:30:06;;;;;;;;;;;;;;;9.25;66.85;100998.13;5005299;27;104869;-48
2022/02/08 15:10:20;;;;;;;;;;;;;;;9.26;66.70;101016.06;4989962;27;103902;-48
2022/02/08 15:12:53;;;;;;;;;;;;;;;9.26;67.01;101013.34;5000634;28;102710;-49
2022/02/08 15:15:45;;;;;;;;;;;;;;;9.27;66.78;101014.19;4999012;27;102836;-49
2022/02/08 15:18:11;;;;;;;;;;;;;;;9.26;66.71;100994.34;5000757;28;103490;-49
2022/02/08 15:20:37;;;;;;;;;;;;;;;9.27;66.66;100996.00;5006454;27;103989;-49
2022/02/08 15:23:07;;;;;;;;;;;;;;;9.26;66.83;100999.78;5006905;27;102136;-48
2022/02/08 15:25:34;;;;;;;;;;;;;;;9.27;66.70;101000.63;5001861;28;102467;-48
2022/02/08 15:28:04;;;;;;;;;;;;;;;9.27;67.04;101000.63;4975180;27;102377;-49
2022/02/08 15:30:32;;;;;;;;;;;;;;;9.27;66.76;101023.16;4988475;28;103860;-49
2022/02/08 15:32:58;;;;;;;;;;;;;;;9.27;66.65;101028.59;4983896;28;103164;-49
2022/02/08 15:35:25;;;;;;;;;;;;;;;9.27;66.58;101028.59;4978657;28;102835;-48
2022/02/08 15:37:51;;;;;;;;;;;;;;;9.28;66.51;101040.28;4985416;28;102629;-48
2022/02/08 15:40:19;;;;;;;;;;;;;;;9.27;66.75;101054.94;4980100;27;103862;-48
2022/02/08 15:42:46;;;;;;;;;;;;;;;9.26;66.66;101062.22;4988648;28;102474;-49
2022/02/08 15:45:20;;;;;;;;;;;;;;;9.26;66.91;101059.50;4987952;27;102732;-48
2022/02/08 15:47:47;;;;;;;;;;;;;;;9.27;66.57;101061.19;4972680;28;102436;-48
2022/02/08 15:50:20;;;;;;;;;;;;;;;9.26;66.59;101069.56;4981633;28;104065;-49
2022/02/08 15:55:48;;;;;;;;;;;;;;;9.27;66.93;101087.53;4988476;28;102674;-49
2022/02/08 16:00:49;;;;;;;;;;;;;;;9.25;66.77;101101.34;4983996;28;104231;-48
2022/02/08 16:08:49;;;;;;;;;;;;;;;9.27;66.15;101120.13;4981482;28;102607;-48
2022/02/08 16:19:13;;;;;;;;;;;;;;;9.27;66.46;101125.53;4977406;28;102474;-49
2022/02/08 16:32:24;;;;;;;;;;;;;;;9.28;66.46;101149.72;4987877;28;103988;-49
2022/02/08 16:59:16;;;;;;;;;;;;;;;9.30;66.61;101193.72;4976273;28;103306;-51
2022/02/08 17:01:42;;;;;;;;;;;;;;;9.31;66.60;101189.97;4991187;28;102657;-51
2022/02/08 17:04:10;;;;;;;;;;;;;;;9.31;66.35;101195.41;4982536;27;103611;-49
2022/02/08 17:06:36;;;;;;;;;;;;;;;9.31;66.69;101198.13;4977482;28;102487;-49
2022/02/08 17:09:07;;;;;;;;;;;;;;;9.31;66.32;101203.53;4985887;28;102501;-49
2022/02/08 17:11:42;;;;;;;;;;;;;;;9.32;66.35;101205.19;4977990;28;102272;-48
2022/02/08 17:15:35;;;;;;;;;;;;;;;9.32;65.90;101210.63;4977509;28;103872;-50
2022/02/08 17:17:30;;;;;;;;;;;;;;;9.31;66.23;101211.69;4985983;28;102296;-48
2022/02/08 17:49:38;;;;;;;;;;;;;;;9.33;66.85;101217.69;4984128;28;102322;-49
2022/02/08 17:52:06;;;;;;;;;;;;;;;9.33;66.19;101216.88;4980159;28;102382;-49
2022/02/08 17:54:32;;;;;;;;;;;;;;;9.33;66.63;101222.28;4988975;28;102250;-48
2022/02/08 17:56:59;;;;;;;;;;;;;;;9.33;66.73;101223.13;4973531;28;103986;-48
2022/02/08 17:59:25;;;;;;;;;;;;;;;9.32;66.01;101221.47;4982147;28;102512;-48
2022/02/08 18:01:52;;;;;;;;;;;;;;;9.32;66.17;101215.22;4978914;28;102582;-49
2022/02/08 18:04:18;;;;;;;;;;;;;;;9.33;66.86;101228.53;4990693;28;102195;-49
2022/02/08 18:06:44;;;;;;;;;;;;;;;9.33;66.02;101225.81;4977575;28;104013;-49
2022/02/08 18:09:18;;;;;;;;;;;;;;;9.32;66.60;101224.19;4980877;27;102682;-48
2022/02/08 18:11:44;;;;;;;;;;;;;;;9.34;66.36;101229.38;4993091;27;102325;-49
2022/02/08 18:14:15;;;;;;;;;;;;;;;9.33;66.38;101228.53;4977366;28;102397;-48
2022/02/08 18:16:42;;;;;;;;;;;;;;;9.33;66.58;101225.81;4976525;28;103992;-48
2022/02/08 18:19:15;;;;;;;;;;;;;;;9.33;65.91;101222.28;4982172;28;102412;-48
2022/02/08 18:22:18;;;;;;;;;;;;;;;9.33;66.06;101225.00;4970327;28;102642;-48
2022/02/08 18:27:40;;;;;;;;;;;;;;;9.33;66.72;101219.56;4986685;28;103885;-49
2022/02/08 18:58:01;;;;;;;;;;;;;;;9.31;66.35;101225.28;4976855;28;102567;-49
2022/02/08 19:17:43;;;;;;;;;;;;;;;9.31;66.47;101224.47;4980665;28;103551;-49
2022/02/08 19:22:00;;;;;;;;;;;;;;;9.31;66.40;101229.88;4983326;28;104147;-48
2022/02/08 19:24:26;;;;;;;;;;;;;;;9.31;66.18;101224.47;4984733;28;102631;-50
2022/02/08 19:26:55;;;;;;;;;;;;;;;9.31;66.30;101236.13;4985062;28;102587;-48
2022/02/08 19:29:23;;;;;;;;;;;;;;;9.30;65.80;101239.91;4988216;28;102692;-50
2022/02/08 19:31:49;;;;;;;;;;;;;;;9.30;66.33;101234.47;4986348;27;104333;-48
2022/02/08 19:34:16;;;;;;;;;;;;;;;9.31;66.10;101246.19;4988366;27;102706;-49
2022/02/08 19:36:44;;;;;;;;;;;;;;;9.30;66.45;101245.34;4980767;28;102819;-50
2022/02/08 19:39:11;;;;;;;;;;;;;;;9.31;66.25;101240.75;4981431;28;102750;-49
2022/02/08 19:41:37;;;;;;;;;;;;;;;9.31;66.11;101240.75;4986099;28;103188;-48
2022/02/08 19:44:04;;;;;;;;;;;;;;;9.31;65.98;101241.56;4987723;28;102118;-48
2022/02/08 19:46:33;;;;;;;;;;;;;;;9.31;66.37;101252.44;4985164;28;102210;-48
2022/02/08 19:48:59;;;;;;;;;;;;;;;9.32;66.45;101245.94;4978099;28;102604;-48
2022/02/08 19:51:26;;;;;;;;;;;;;;;9.32;66.19;101253.25;4980478;28;103943;-49
2022/02/08 19:53:55;;;;;;;;;;;;;;;9.31;66.36;101257.88;4982980;27;102531;-49
2022/02/08 19:56:28;;;;;;;;;;;;;;;9.32;65.82;101264.94;4974270;28;102482;-48
2022/02/08 19:58:57;;;;;;;;;;;;;;;9.32;66.33;101259.50;4975097;28;102159;-48
2022/02/08 20:01:29;;;;;;;;;;;;;;;9.32;66.61;101258.69;4983302;28;103742;-48
2022/02/08 20:06:26;;;;;;;;;;;;;;;9.32;66.37;101254.06;4970948;28;102900;-48
2022/02/08 20:08:52;;;;;;;;;;;;;;;9.32;66.73;101261.41;4982809;28;102369;-49
2022/02/08 20:11:19;;;;;;;;;;;;;;;9.32;66.11;101264.94;4987120;28;104105;-49
2022/02/08 20:13:52;;;;;;;;;;;;;;;9.33;66.49;101269.28;4982163;28;102287;-48
2022/02/08 20:16:18;;;;;;;;;;;;;;;9.33;66.12;101272.00;4980183;28;102350;-49
2022/02/08 20:18:47;;;;;;;;;;;;;;;9.33;66.35;101272.00;4978414;28;102630;-49
2022/02/08 20:21:14;;;;;;;;;;;;;;;9.33;66.12;101273.91;4972435;28;103693;-48
2022/02/08 20:23:40;;;;;;;;;;;;;;;9.33;66.39;101269.28;4982378;28;105643;-49
2022/02/08 20:26:07;;;;;;;;;;;;;;;9.33;66.55;101266.56;4979553;28;102459;-48
2022/02/08 20:28:50;;;;;;;;;;;;;;;9.33;66.22;101261.13;4985929;28;102288;-49
2022/02/08 20:31:17;;;;;;;;;;;;;;;9.32;65.81;101262.22;4987672;28;106977;-49
2022/02/08 20:33:43;;;;;;;;;;;;;;;9.32;66.05;101264.94;4982619;28;102519;-48
2022/02/08 20:36:09;;;;;;;;;;;;;;;9.33;66.41;101261.13;4986376;27;102565;-48
2022/02/08 20:38:37;;;;;;;;;;;;;;;9.34;66.35;101272.81;4988880;28;102614;-49
2022/02/08 20:41:03;;;;;;;;;;;;;;;9.34;66.66;101264.69;4983991;27;103682;-48
2022/02/08 20:43:35;;;;;;;;;;;;;;;9.33;65.90;101258.41;4985529;28;102830;-48
2022/02/08 20:46:03;;;;;;;;;;;;;;;9.34;65.95;101256.53;4984169;28;102491;-49
2022/02/08 20:48:30;;;;;;;;;;;;;;;9.33;66.31;101266.56;4987500;28;102490;-49
2022/02/08 20:51:00;;;;;;;;;;;;;;;9.33;66.47;101266.56;4986379;28;104177;-49